createdAt,value
2023-07-30T00:00:15.723Z,97247.03
2023-07-30T00:02:42.971Z,97244.81
2023-07-30T00:05:10.233Z,97237.44
2023-07-30T00:07:38.753Z,97221.50
2023-07-30T00:10:07.185Z,97238.13
2023-07-30T00:12:34.381Z,97243.03
2023-07-30T00:15:01.618Z,97240.94
2023-07-30T00:17:28.773Z,97229.31
2023-07-30T00:19:55.953Z,97226.13
2023-07-30T00:22:24.426Z,97224.50
2023-07-30T00:24:53.142Z,97223.53
2023-07-30T00:27:23.344Z,97212.22
2023-07-30T00:29:50.991Z,97215.09
2023-07-30T00:32:18.271Z,97219.09
2023-07-30T00:34:45.577Z,97221.19
2023-07-30T00:37:12.742Z,97219.44
2023-07-30T00:39:39.904Z,97216.09
2023-07-30T00:42:08.507Z,97216.44
2023-07-30T00:44:35.673Z,97227.75
2023-07-30T00:47:03.256Z,97238.41
2023-07-30T00:49:30.704Z,97230.59
2023-07-30T00:51:58.031Z,97228.69
2023-07-30T00:54:26.511Z,97232.22
2023-07-30T00:56:54.728Z,97220.06
2023-07-30T00:59:23.460Z,97225.00
2023-07-30T01:01:52.035Z,97229.31
2023-07-30T01:04:19.554Z,97228.50
2023-07-30T01:06:47.289Z,97230.22
2023-07-30T01:09:15.453Z,97212.81
2023-07-30T01:11:43.998Z,97246.50
2023-07-30T01:14:11.603Z,97255.09
2023-07-30T01:16:40.188Z,97240.09
2023-07-30T01:19:07.616Z,97244.13
2023-07-30T01:21:37.622Z,97258.63
2023-07-30T01:24:05.445Z,97256.59
2023-07-30T01:26:38.528Z,97244.31
2023-07-30T01:29:17.175Z,97239.84
2023-07-30T01:31:45.213Z,97238.53
2023-07-30T01:34:13.367Z,97252.44
2023-07-30T01:36:42.982Z,97250.69
2023-07-30T01:39:10.988Z,97247.81
2023-07-30T01:41:38.328Z,97246.53
2023-07-30T01:44:05.723Z,97245.41
2023-07-30T01:46:32.951Z,97246.53
2023-07-30T01:49:00.206Z,97245.28
2023-07-30T01:51:27.577Z,97243.34
2023-07-30T01:53:56.170Z,97243.28
2023-07-30T01:56:23.348Z,97261.16
2023-07-30T01:58:50.552Z,97258.75
2023-07-30T02:01:17.811Z,97258.94
2023-07-30T02:03:45.118Z,97254.31
2023-07-30T02:06:12.562Z,97252.41
2023-07-30T02:08:39.811Z,97237.09
2023-07-30T02:11:08.332Z,97253.53
2023-07-30T02:13:35.479Z,97248.63
2023-07-30T02:16:02.749Z,97245.75
2023-07-30T02:18:29.953Z,97244.00
2023-07-30T02:20:57.126Z,97215.22
2023-07-30T02:23:24.804Z,97243.53
2023-07-30T02:25:51.960Z,97243.84
2023-07-30T02:28:20.543Z,97251.16
2023-07-30T02:30:47.782Z,97250.22
2023-07-30T02:33:14.958Z,97241.75
2023-07-30T02:35:44.187Z,97246.53
2023-07-30T02:38:11.393Z,97244.44
2023-07-30T02:40:38.635Z,97247.31
2023-07-30T02:43:05.824Z,97256.53
2023-07-30T02:45:34.466Z,97258.44
2023-07-30T02:48:01.685Z,97267.56
2023-07-30T02:50:28.848Z,97262.94
2023-07-30T02:52:56.033Z,97251.59
2023-07-30T02:55:23.206Z,97254.38
2023-07-30T02:57:50.382Z,97234.44
2023-07-30T03:00:18.121Z,97224.22
2023-07-30T03:02:46.714Z,97211.50
2023-07-30T03:05:14.005Z,97208.78
2023-07-30T03:07:43.744Z,97199.84
2023-07-30T03:10:11.247Z,97212.13
2023-07-30T03:12:38.403Z,97211.81
2023-07-30T03:15:06.478Z,97188.03
2023-07-30T03:17:33.696Z,97192.06
2023-07-30T03:20:02.602Z,97206.53
2023-07-30T03:22:29.790Z,97209.88
2023-07-30T03:24:57.022Z,97211.63
2023-07-30T03:27:24.179Z,97226.59
2023-07-30T03:29:51.357Z,97235.16
2023-07-30T03:32:18.590Z,97239.78
2023-07-30T03:34:45.747Z,97245.41
2023-07-30T03:37:14.273Z,97229.75
2023-07-30T03:39:41.495Z,97241.13
2023-07-30T03:42:08.654Z,97235.41
2023-07-30T03:44:35.819Z,97230.78
2023-07-30T03:47:03.158Z,97215.28
2023-07-30T03:49:30.353Z,97235.41
2023-07-30T03:51:57.569Z,97239.38
2023-07-30T03:54:27.015Z,97224.38
2023-07-30T03:56:54.274Z,97247.81
2023-07-30T03:59:21.436Z,97257.56
2023-07-30T04:01:48.584Z,97246.53
2023-07-30T04:04:15.745Z,97257.06
2023-07-30T04:06:42.927Z,97252.44
2023-07-30T04:09:10.095Z,97235.03
2023-07-30T04:11:38.807Z,97251.16
2023-07-30T04:14:07.581Z,97260.69
2023-07-30T04:16:34.907Z,97264.06
2023-07-30T04:19:02.124Z,97267.06
2023-07-30T04:21:29.476Z,97279.00
2023-07-30T04:23:56.646Z,97272.19
2023-07-30T04:26:23.856Z,97278.38
2023-07-30T04:28:52.384Z,97281.28
2023-07-30T04:31:19.883Z,97276.97
2023-07-30T04:33:47.070Z,97288.47
2023-07-30T04:36:14.324Z,97285.28
2023-07-30T04:38:41.498Z,97274.88
2023-07-30T04:41:08.727Z,97291.84
2023-07-30T04:43:35.902Z,97288.94
2023-07-30T04:46:04.464Z,97292.78
2023-07-30T04:48:31.676Z,97290.38
2023-07-30T04:50:58.968Z,97303.63
2023-07-30T04:53:26.200Z,97303.75
2023-07-30T04:55:56.435Z,97298.81
2023-07-30T04:58:23.770Z,97308.06
2023-07-30T05:00:51.220Z,97307.72
2023-07-30T05:03:19.884Z,97307.59
2023-07-30T05:05:47.235Z,97315.19
2023-07-30T05:08:14.433Z,97309.78
2023-07-30T05:10:41.610Z,97327.16
2023-07-30T05:13:08.958Z,97330.34
2023-07-30T05:15:38.827Z,97312.44
2023-07-30T05:18:06.084Z,97326.03
2023-07-30T05:20:34.839Z,97340.25
2023-07-30T05:23:01.997Z,97345.50
2023-07-30T05:25:29.353Z,97337.53
2023-07-30T05:27:56.748Z,97344.34
2023-07-30T05:30:23.905Z,97339.13
2023-07-30T05:32:51.170Z,97340.22
2023-07-30T05:35:18.389Z,97343.16
2023-07-30T05:37:46.951Z,97343.84
2023-07-30T05:40:14.306Z,97349.25
2023-07-30T05:42:41.521Z,97345.72
2023-07-30T05:45:09.854Z,97343.84
2023-07-30T05:47:37.097Z,97353.69
2023-07-30T05:50:04.536Z,97358.78
2023-07-30T05:52:31.742Z,97360.13
2023-07-30T05:55:00.383Z,97359.13
2023-07-30T05:57:27.608Z,97362.56
2023-07-30T05:59:54.823Z,97353.34
2023-07-30T06:02:21.961Z,97321.47
2023-07-30T06:04:49.118Z,97364.84
2023-07-30T06:07:16.282Z,97345.41
2023-07-30T06:09:43.527Z,97361.44
2023-07-30T06:12:12.106Z,97359.31
2023-07-30T06:14:39.312Z,97355.81
2023-07-30T06:17:06.651Z,97366.75
2023-07-30T06:19:34.125Z,97376.25
2023-07-30T06:22:01.290Z,97380.88
2023-07-30T06:24:28.445Z,97378.97
2023-07-30T06:26:55.812Z,97374.88
2023-07-30T06:29:24.343Z,97372.03
2023-07-30T06:31:51.613Z,97374.84
2023-07-30T06:34:18.887Z,97380.06
2023-07-30T06:36:46.034Z,97375.75
2023-07-30T06:39:13.284Z,97376.53
2023-07-30T06:41:40.992Z,97377.03
2023-07-30T06:44:08.408Z,97370.63
2023-07-30T06:46:37.127Z,97364.31
2023-07-30T06:49:04.344Z,97387.25
2023-07-30T06:51:31.575Z,97391.66
2023-07-30T06:53:58.817Z,97382.44
2023-07-30T06:56:26.004Z,97378.88
2023-07-30T06:58:53.185Z,97379.66
2023-07-30T07:01:20.412Z,97379.06
2023-07-30T07:03:49.106Z,97378.25
2023-07-30T07:06:16.323Z,97392.59
2023-07-30T07:08:43.481Z,97402.63
2023-07-30T07:11:10.707Z,97383.06
2023-07-30T07:13:37.856Z,97384.03
2023-07-30T07:16:05.344Z,97385.56
2023-07-30T07:18:32.624Z,97396.56
2023-07-30T07:21:01.186Z,97398.47
2023-07-30T07:23:28.340Z,97392.84
2023-07-30T07:25:55.704Z,97382.94
2023-07-30T07:28:23.047Z,97392.56
2023-07-30T07:30:50.251Z,97389.06
2023-07-30T07:33:17.474Z,97394.19
2023-07-30T07:35:44.621Z,97388.44
2023-07-30T07:38:13.155Z,97377.13
2023-07-30T07:40:40.553Z,97375.91
2023-07-30T07:43:08.038Z,97389.31
2023-07-30T07:45:35.492Z,97384.69
2023-07-30T07:48:02.776Z,97379.91
2023-07-30T07:50:29.970Z,97383.91
2023-07-30T07:52:57.180Z,97379.41
2023-07-30T07:55:25.783Z,97395.22
2023-07-30T07:57:52.950Z,97382.50
2023-07-30T08:00:20.140Z,97386.63
2023-07-30T08:02:50.336Z,97386.13
2023-07-30T08:05:18.886Z,97371.09
2023-07-30T08:07:47.014Z,97384.19
2023-07-30T08:10:14.245Z,97381.44
2023-07-30T08:12:43.218Z,97391.84
2023-07-30T08:15:10.704Z,97392.16
2023-07-30T08:17:37.950Z,97402.66
2023-07-30T08:20:06.282Z,97386.13
2023-07-30T08:22:33.988Z,97381.13
2023-07-30T08:25:01.168Z,97401.75
2023-07-30T08:27:28.469Z,97397.13
2023-07-30T08:29:57.120Z,97406.75
2023-07-30T08:32:24.428Z,97401.34
2023-07-30T08:34:51.630Z,97397.03
2023-07-30T08:37:18.794Z,97399.91
2023-07-30T08:39:48.337Z,97395.91
2023-07-30T08:42:17.143Z,97393.22
2023-07-30T08:44:44.547Z,97398.81
2023-07-30T08:47:13.126Z,97392.63
2023-07-30T08:49:40.420Z,97389.09
2023-07-30T08:52:10.067Z,97389.09
2023-07-30T08:54:38.428Z,97380.16
2023-07-30T08:57:06.516Z,97380.47
2023-07-30T08:59:45.509Z,97383.31
2023-07-30T09:02:24.472Z,97361.56
2023-07-30T09:04:57.516Z,97374.38
2023-07-30T09:07:25.376Z,97379.00
2023-07-30T09:09:52.930Z,97362.06
2023-07-30T09:12:20.172Z,97374.88
2023-07-30T09:14:52.172Z,97362.00
2023-07-30T09:17:21.229Z,97353.88
2023-07-30T09:19:48.729Z,97352.38
2023-07-30T09:22:21.233Z,97353.22
2023-07-30T09:24:51.169Z,97340.34
2023-07-30T09:27:21.955Z,97351.59
2023-07-30T09:29:52.366Z,97350.16
2023-07-30T09:32:21.266Z,97342.69
2023-07-30T09:34:48.495Z,97350.50
2023-07-30T09:37:15.680Z,97349.38
2023-07-30T09:39:42.913Z,97357.19
2023-07-30T09:42:10.301Z,97363.41
2023-07-30T09:44:38.707Z,97356.22
2023-07-30T09:47:06.514Z,97349.00
2023-07-30T09:49:35.170Z,97357.94
2023-07-30T09:52:03.980Z,97347.81
2023-07-30T09:54:32.676Z,97351.19
2023-07-30T09:56:59.845Z,97352.78
2023-07-30T09:59:27.048Z,97348.16
2023-07-30T10:01:54.456Z,97348.69
2023-07-30T10:04:22.398Z,97362.91
2023-07-30T10:06:56.075Z,97344.09
2023-07-30T10:09:27.640Z,97359.31
2023-07-30T10:11:55.590Z,97352.09
2023-07-30T10:14:25.528Z,97349.06
2023-07-30T10:16:54.884Z,97335.38
2023-07-30T10:19:25.811Z,97388.59
2023-07-30T10:21:58.307Z,97395.59
2023-07-30T10:24:26.540Z,97396.72
2023-07-30T10:26:54.215Z,97372.34
2023-07-30T10:29:21.911Z,97376.06
2023-07-30T10:31:53.264Z,97390.13
2023-07-30T10:34:20.506Z,97384.50
2023-07-30T10:36:50.120Z,97391.63
2023-07-30T10:39:20.829Z,97391.78
2023-07-30T10:41:51.250Z,97390.13
2023-07-30T10:44:20.133Z,97394.44
2023-07-30T10:46:47.419Z,97391.72
2023-07-30T10:49:14.670Z,97376.91
2023-07-30T10:51:42.243Z,97370.44
2023-07-30T10:54:10.000Z,97372.03
2023-07-30T10:56:40.520Z,97372.50
2023-07-30T10:59:08.664Z,97337.16
2023-07-30T11:01:40.453Z,97371.41
2023-07-30T11:04:09.525Z,97364.03
2023-07-30T11:06:36.730Z,97373.84
2023-07-30T11:09:04.201Z,97371.91
2023-07-30T11:11:31.697Z,97374.13
2023-07-30T11:14:01.489Z,97382.25
2023-07-30T11:16:28.805Z,97383.00
2023-07-30T11:18:56.080Z,97387.28
2023-07-30T11:21:23.227Z,97389.09
2023-07-30T11:23:51.900Z,97383.31
2023-07-30T11:26:20.905Z,97392.50
2023-07-30T11:28:48.457Z,97396.13
2023-07-30T11:31:18.549Z,97381.88
2023-07-30T11:33:47.595Z,97394.72
2023-07-30T11:36:17.412Z,97400.53
2023-07-30T11:38:46.492Z,97399.09
2023-07-30T11:41:14.969Z,97383.06
2023-07-30T11:43:44.062Z,97389.44
2023-07-30T11:46:15.779Z,97388.66
2023-07-30T11:48:45.514Z,97373.84
2023-07-30T11:51:23.327Z,97363.19
2023-07-30T11:53:52.175Z,97346.56
2023-07-30T11:56:23.819Z,97366.69
2023-07-30T11:58:52.552Z,97356.75
2023-07-30T12:01:20.198Z,97356.47
2023-07-30T12:03:48.892Z,97363.97
2023-07-30T12:06:16.097Z,97352.47
2023-07-30T12:08:43.252Z,97362.38
2023-07-30T12:11:11.442Z,97367.94
2023-07-30T12:13:45.724Z,97383.69
2023-07-30T12:16:14.161Z,97412.88
2023-07-30T12:18:41.712Z,97403.97
2023-07-30T12:21:10.305Z,97439.53
2023-07-30T12:23:37.907Z,97424.91
2023-07-30T12:26:05.209Z,97429.78
2023-07-30T12:28:33.453Z,97429.84
2023-07-30T12:31:00.776Z,97414.31
2023-07-30T12:33:28.021Z,97430.34
2023-07-30T12:35:55.203Z,97423.25
2023-07-30T12:38:23.799Z,97421.72
2023-07-30T12:40:50.975Z,97436.38
2023-07-30T12:43:18.257Z,97432.25
2023-07-30T12:45:45.519Z,97417.22
2023-07-30T12:48:12.827Z,97428.97
2023-07-30T12:50:40.196Z,97422.09
2023-07-30T12:53:07.404Z,97435.53
2023-07-30T12:55:35.953Z,97425.00
2023-07-30T12:58:03.160Z,97436.81
2023-07-30T13:00:30.358Z,97444.44
2023-07-30T13:02:57.547Z,97443.94
2023-07-30T13:05:24.837Z,97444.59
2023-07-30T13:07:52.051Z,97441.53
2023-07-30T13:10:19.240Z,97434.34
2023-07-30T13:12:47.789Z,97428.38
2023-07-30T13:15:14.977Z,97430.59
2023-07-30T13:17:42.194Z,97434.03
2023-07-30T13:20:10.174Z,97414.84
2023-07-30T13:22:37.351Z,97433.88
2023-07-30T13:25:05.148Z,97433.53
2023-07-30T13:27:35.464Z,97436.09
2023-07-30T13:30:07.254Z,97441.00
2023-07-30T13:32:34.518Z,97437.50
2023-07-30T13:35:01.732Z,97436.50
2023-07-30T13:37:29.036Z,97440.50
2023-07-30T13:39:56.297Z,97440.34
2023-07-30T13:42:23.497Z,97434.53
2023-07-30T13:44:50.715Z,97429.72
2023-07-30T13:47:19.364Z,97428.94
2023-07-30T13:49:46.559Z,97408.97
2023-07-30T13:52:13.856Z,97421.00
2023-07-30T13:54:41.190Z,97419.47
2023-07-30T13:57:08.539Z,97417.44
2023-07-30T13:59:35.820Z,97420.19
2023-07-30T14:02:03.075Z,97402.53
2023-07-30T14:04:31.593Z,97401.22
2023-07-30T14:06:58.975Z,97400.09
2023-07-30T14:09:26.162Z,97374.72
2023-07-30T14:11:53.366Z,97408.47
2023-07-30T14:14:20.543Z,97413.44
2023-07-30T14:16:48.195Z,97410.50
2023-07-30T14:19:15.525Z,97405.22
2023-07-30T14:21:44.092Z,97406.75
2023-07-30T14:24:11.758Z,97410.72
2023-07-30T14:26:39.296Z,97402.91
2023-07-30T14:29:06.584Z,97399.25
2023-07-30T14:31:33.797Z,97409.16
2023-07-30T14:34:01.006Z,97413.59
2023-07-30T14:36:28.298Z,97407.00
2023-07-30T14:38:56.976Z,97419.16
2023-07-30T14:41:24.126Z,97419.22
2023-07-30T14:43:51.287Z,97419.22
2023-07-30T14:46:18.510Z,97413.50
2023-07-30T14:48:45.696Z,97414.47
2023-07-30T14:51:12.939Z,97425.53
2023-07-30T14:53:40.097Z,97426.47
2023-07-30T14:56:08.787Z,97413.81
2023-07-30T14:58:36.335Z,97422.31
2023-07-30T15:01:03.834Z,97421.97
2023-07-30T15:03:31.113Z,97422.97
2023-07-30T15:05:58.635Z,97426.78
2023-07-30T15:08:25.902Z,97422.13
2023-07-30T15:10:53.090Z,97414.25
2023-07-30T15:13:21.885Z,97417.75
2023-07-30T15:15:49.145Z,97407.22
2023-07-30T15:18:16.374Z,97412.19
2023-07-30T15:20:43.639Z,97421.44
2023-07-30T15:23:10.985Z,97418.13
2023-07-30T15:25:38.289Z,97423.88
2023-07-30T15:28:05.586Z,97408.34
2023-07-30T15:30:35.465Z,97423.19
2023-07-30T15:33:02.733Z,97415.72
2023-07-30T15:35:30.286Z,97400.81
2023-07-30T15:37:57.439Z,97417.94
2023-07-30T15:40:25.026Z,97400.69
2023-07-30T15:42:52.585Z,97403.31
2023-07-30T15:45:19.777Z,97405.06
2023-07-30T15:47:48.576Z,97409.06
2023-07-30T15:50:15.953Z,97403.50
2023-07-30T15:52:43.161Z,97415.16
2023-07-30T15:55:10.480Z,97411.78
2023-07-30T15:57:37.766Z,97414.50
2023-07-30T16:00:06.367Z,97419.13
2023-07-30T16:02:34.842Z,97420.75
2023-07-30T16:05:03.882Z,97420.41
2023-07-30T16:07:31.028Z,97412.91
2023-07-30T16:09:58.291Z,97414.34
2023-07-30T16:12:25.782Z,97415.63
2023-07-30T16:14:52.922Z,97420.41
2023-07-30T16:17:20.552Z,97421.53
2023-07-30T16:19:47.839Z,97424.22
2023-07-30T16:22:16.651Z,97444.34
2023-07-30T16:24:43.804Z,97442.94
2023-07-30T16:27:11.106Z,97431.13
2023-07-30T16:29:38.459Z,97436.56
2023-07-30T16:32:06.187Z,97440.53
2023-07-30T16:34:33.365Z,97443.38
2023-07-30T16:37:00.502Z,97409.84
2023-07-30T16:39:29.251Z,97436.22
2023-07-30T16:41:56.713Z,97448.66
2023-07-30T16:44:23.998Z,97458.22
2023-07-30T16:46:51.282Z,97435.25
2023-07-30T16:49:18.904Z,97437.47
2023-07-30T16:51:46.089Z,97448.16
2023-07-30T16:54:13.284Z,97453.44
2023-07-30T16:56:42.199Z,97456.47
2023-07-30T16:59:09.854Z,97458.03
2023-07-30T17:01:37.102Z,97454.66
2023-07-30T17:04:04.581Z,97459.91
2023-07-30T17:06:32.192Z,97462.00
2023-07-30T17:08:59.526Z,97456.09
2023-07-30T17:11:26.699Z,97454.31
2023-07-30T17:13:55.400Z,97462.75
2023-07-30T17:16:23.228Z,97457.50
2023-07-30T17:18:50.499Z,97456.59
2023-07-30T17:21:17.791Z,97464.56
2023-07-30T17:23:45.032Z,97466.19
2023-07-30T17:26:12.472Z,97484.06
2023-07-30T17:28:39.800Z,97476.56
2023-07-30T17:31:11.485Z,97465.16
2023-07-30T17:33:38.969Z,97488.03
2023-07-30T17:36:06.667Z,97496.66
2023-07-30T17:38:34.086Z,97477.94
2023-07-30T17:41:01.523Z,97484.63
2023-07-30T17:43:28.732Z,97493.72
2023-07-30T17:45:55.962Z,97497.88
2023-07-30T17:48:24.604Z,97499.47
2023-07-30T17:50:52.157Z,97511.09
2023-07-30T17:53:19.321Z,97516.88
2023-07-30T17:55:48.440Z,97520.19
2023-07-30T17:58:15.732Z,97521.16
2023-07-30T18:00:43.602Z,97530.09
2023-07-30T18:03:11.184Z,97525.97
2023-07-30T18:05:47.250Z,97535.59
2023-07-30T18:08:15.705Z,97537.03
2023-07-30T18:10:44.592Z,97541.50
2023-07-30T18:13:11.879Z,97544.97
2023-07-30T18:15:39.140Z,97552.19
2023-07-30T18:18:06.550Z,97544.34
2023-07-30T18:20:34.113Z,97563.03
2023-07-30T18:23:03.264Z,97558.22
2023-07-30T18:25:30.612Z,97565.25
2023-07-30T18:27:58.107Z,97562.16
2023-07-30T18:30:25.714Z,97568.72
2023-07-30T18:32:52.983Z,97561.25
2023-07-30T18:35:20.296Z,97576.91
2023-07-30T18:37:47.578Z,97584.72
2023-07-30T18:40:16.141Z,97527.34
2023-07-30T18:42:43.401Z,97595.75
2023-07-30T18:45:11.581Z,97601.66
2023-07-30T18:47:38.794Z,97611.22
2023-07-30T18:50:07.289Z,97605.19
2023-07-30T18:52:34.522Z,97614.03
2023-07-30T18:55:01.723Z,97598.94
2023-07-30T18:57:30.256Z,97619.97
2023-07-30T18:59:57.439Z,97617.84
2023-07-30T19:02:24.897Z,97616.72
2023-07-30T19:04:52.129Z,97627.78
2023-07-30T19:07:19.361Z,97629.00
2023-07-30T19:09:47.824Z,97631.91
2023-07-30T19:12:15.943Z,97647.25
2023-07-30T19:14:45.100Z,97634.34
2023-07-30T19:17:12.283Z,97643.88
2023-07-30T19:19:39.556Z,97654.03
2023-07-30T19:22:06.743Z,97638.47
2023-07-30T19:24:33.921Z,97646.31
2023-07-30T19:27:01.150Z,97634.56
2023-07-30T19:29:28.335Z,97647.94
2023-07-30T19:31:56.931Z,97650.00
2023-07-30T19:34:24.138Z,97644.72
2023-07-30T19:36:51.435Z,97649.22
2023-07-30T19:39:18.612Z,97645.22
2023-07-30T19:41:45.778Z,97640.09
2023-07-30T19:44:13.096Z,97656.75
2023-07-30T19:46:40.478Z,97644.78
2023-07-30T19:49:09.663Z,97653.22
2023-07-30T19:51:37.413Z,97659.56
2023-07-30T19:54:05.191Z,97660.84
2023-07-30T19:56:32.370Z,97659.88
2023-07-30T19:58:59.706Z,97660.16
2023-07-30T20:01:26.915Z,97659.31
2023-07-30T20:03:54.334Z,97668.44
2023-07-30T20:06:23.330Z,97683.00
2023-07-30T20:08:50.575Z,97676.09
2023-07-30T20:11:17.807Z,97673.47
2023-07-30T20:13:44.987Z,97673.78
2023-07-30T20:16:12.821Z,97678.59
2023-07-30T20:18:40.153Z,97666.44
2023-07-30T20:21:08.368Z,97671.75
2023-07-30T20:23:37.925Z,97675.25
2023-07-30T20:26:12.154Z,97652.38
2023-07-30T20:28:39.457Z,97664.59
2023-07-30T20:31:06.757Z,97678.66
2023-07-30T20:33:34.020Z,97666.03
2023-07-30T20:36:01.172Z,97666.53
2023-07-30T20:38:28.367Z,97676.59
2023-07-30T20:40:58.469Z,97665.53
2023-07-30T20:43:25.865Z,97669.53
2023-07-30T20:45:53.087Z,97673.03
2023-07-30T20:48:20.364Z,97669.03
2023-07-30T20:50:47.848Z,97672.56
2023-07-30T20:53:15.009Z,97676.38
2023-07-30T20:55:42.389Z,97676.09
2023-07-30T20:58:11.067Z,97678.50
2023-07-30T21:00:38.268Z,97690.19
2023-07-30T21:03:05.624Z,97694.97
2023-07-30T21:05:32.907Z,97690.19
2023-07-30T21:08:00.062Z,97697.69
2023-07-30T21:10:27.349Z,97689.25
2023-07-30T21:12:54.514Z,97686.03
2023-07-30T21:15:23.370Z,97678.22
2023-07-30T21:17:50.602Z,97687.53
2023-07-30T21:20:18.021Z,97696.97
2023-07-30T21:22:45.237Z,97702.38
2023-07-30T21:25:13.403Z,97694.88
2023-07-30T21:27:40.573Z,97682.03
2023-07-30T21:30:08.659Z,97690.84
2023-07-30T21:32:37.318Z,97697.28
2023-07-30T21:35:05.121Z,97698.38
2023-07-30T21:37:32.298Z,97696.78
2023-07-30T21:40:00.256Z,97696.78
2023-07-30T21:42:27.988Z,97695.28
2023-07-30T21:44:55.274Z,97695.59
2023-07-30T21:47:22.788Z,97697.63
2023-07-30T21:49:51.537Z,97703.53
2023-07-30T21:52:23.177Z,97701.53
2023-07-30T21:54:50.598Z,97703.53
2023-07-30T21:57:18.119Z,97701.44
2023-07-30T21:59:46.745Z,97698.81
2023-07-30T22:02:13.927Z,97709.81
2023-07-30T22:04:41.291Z,97706.03
2023-07-30T22:07:10.040Z,97702.81
2023-07-30T22:09:38.292Z,97711.44
2023-07-30T22:12:06.037Z,97709.34
2023-07-30T22:14:33.435Z,97716.06
2023-07-30T22:17:00.959Z,97718.28
2023-07-30T22:19:28.367Z,97715.56
2023-07-30T22:21:55.667Z,97714.59
2023-07-30T22:24:24.273Z,97713.47
2023-07-30T22:26:51.420Z,97717.78
2023-07-30T22:29:18.622Z,97712.66
2023-07-30T22:31:45.799Z,97720.91
2023-07-30T22:34:13.144Z,97726.13
2023-07-30T22:36:40.932Z,97721.19
2023-07-30T22:39:08.472Z,97723.41
2023-07-30T22:41:37.096Z,97728.25
2023-07-30T22:44:04.587Z,97714.28
2023-07-30T22:46:31.909Z,97719.63
2023-07-30T22:48:59.328Z,97718.09
2023-07-30T22:51:26.765Z,97715.25
2023-07-30T22:53:53.942Z,97711.34
2023-07-30T22:56:21.191Z,97718.59
2023-07-30T22:58:49.797Z,97713.66
2023-07-30T23:01:17.049Z,97718.59
2023-07-30T23:03:44.478Z,97717.47
2023-07-30T23:06:11.800Z,97715.56
2023-07-30T23:08:38.980Z,97718.28
2023-07-30T23:11:06.346Z,97717.28
2023-07-30T23:13:33.538Z,97721.31
2023-07-30T23:16:02.072Z,97722.19
2023-07-30T23:18:29.417Z,97714.78
2023-07-30T23:20:56.724Z,97719.22
2023-07-30T23:23:23.874Z,97725.75
2023-07-30T23:25:51.699Z,97728.13
2023-07-30T23:28:18.979Z,97729.66
2023-07-30T23:30:46.209Z,97728.97
2023-07-30T23:33:14.880Z,97723.41
2023-07-30T23:35:42.120Z,97725.53
2023-07-30T23:38:09.298Z,97722.53
2023-07-30T23:40:36.494Z,97716.19
2023-07-30T23:43:03.685Z,97724.31
2023-07-30T23:45:30.836Z,97721.09
2023-07-30T23:47:58.687Z,97706.75
2023-07-30T23:50:28.153Z,97703.63
2023-07-30T23:52:55.481Z,97699.34
2023-07-30T23:55:22.858Z,97706.25
2023-07-30T23:57:50.252Z,97714.88
